sensor_id;sensor_type;location;lat;lon;timestamp;temperature;humidity
12254;DHT22;6189;52.526;13.390;2023-04-27T00:02:10;9.90;90.70
12254;DHT22;6189;52.526;13.390;2023-04-27T00:04:56;10.20;90.70
12254;DHT22;6189;52.526;13.390;2023-04-27T00:07:42;10.30;90.90
12254;DHT22;6189;52.526;13.390;2023-04-27T00:10:29;10.40;90.60
12254;DHT22;6189;52.526;13.390;2023-04-27T00:13:14;10.10;90.70
12254;DHT22;6189;52.526;13.390;2023-04-27T00:16:00;9.80;91.00
12254;DHT22;6189;52.526;13.390;2023-04-27T00:18:47;9.60;91.60
12254;DHT22;6189;52.526;13.390;2023-04-27T00:21:32;9.90;91.40
12254;DHT22;6189;52.526;13.390;2023-04-27T00:24:18;9.90;91.30
12254;DHT22;6189;52.526;13.390;2023-04-27T00:27:05;10.00;91.10
12254;DHT22;6189;52.526;13.390;2023-04-27T00:29:50;9.80;91.20
12254;DHT22;6189;52.526;13.390;2023-04-27T00:32:36;10.00;91.30
12254;DHT22;6189;52.526;13.390;2023-04-27T00:35:22;10.10;91.50
12254;DHT22;6189;52.526;13.390;2023-04-27T00:38:08;10.00;91.10
12254;DHT22;6189;52.526;13.390;2023-04-27T00:41:00;9.80;91.60
12254;DHT22;6189;52.526;13.390;2023-04-27T00:43:47;9.60;91.60
12254;DHT22;6189;52.526;13.390;2023-04-27T00:46:33;9.30;92.30
12254;DHT22;6189;52.526;13.390;2023-04-27T00:49:19;9.40;92.50
12254;DHT22;6189;52.526;13.390;2023-04-27T00:52:05;9.30;92.40
12254;DHT22;6189;52.526;13.390;2023-04-27T00:54:52;9.50;92.40
12254;DHT22;6189;52.526;13.390;2023-04-27T00:57:37;9.50;92.50
12254;DHT22;6189;52.526;13.390;2023-04-27T01:00:24;9.90;92.10
12254;DHT22;6189;52.526;13.390;2023-04-27T01:03:10;9.70;91.90
12254;DHT22;6189;52.526;13.390;2023-04-27T01:05:56;9.10;93.00
12254;DHT22;6189;52.526;13.390;2023-04-27T01:08:44;8.70;93.90
12254;DHT22;6189;52.526;13.390;2023-04-27T01:11:30;8.40;94.40
12254;DHT22;6189;52.526;13.390;2023-04-27T01:14:16;8.40;94.80
12254;DHT22;6189;52.526;13.390;2023-04-27T01:17:03;8.60;94.70
12254;DHT22;6189;52.526;13.390;2023-04-27T01:19:49;8.90;94.50
12254;DHT22;6189;52.526;13.390;2023-04-27T01:22:38;9.30;93.90
12254;DHT22;6189;52.526;13.390;2023-04-27T01:25:26;8.90;94.30
12254;DHT22;6189;52.526;13.390;2023-04-27T01:28:11;8.90;94.60
12254;DHT22;6189;52.526;13.390;2023-04-27T01:30:57;8.90;94.60
12254;DHT22;6189;52.526;13.390;2023-04-27T01:33:43;8.80;95.20
12254;DHT22;6189;52.526;13.390;2023-04-27T01:36:29;8.70;95.60
12254;DHT22;6189;52.526;13.390;2023-04-27T01:39:15;8.70;96.10
12254;DHT22;6189;52.526;13.390;2023-04-27T01:42:02;8.80;95.60
12254;DHT22;6189;52.526;13.390;2023-04-27T01:44:48;8.70;95.90
12254;DHT22;6189;52.526;13.390;2023-04-27T01:47:34;8.80;95.80
12254;DHT22;6189;52.526;13.390;2023-04-27T01:50:19;8.40;96.20
12254;DHT22;6189;52.526;13.390;2023-04-27T01:53:05;8.90;96.20
12254;DHT22;6189;52.526;13.390;2023-04-27T01:55:51;8.60;96.50
12254;DHT22;6189;52.526;13.390;2023-04-27T01:58:38;8.30;97.10
12254;DHT22;6189;52.526;13.390;2023-04-27T02:01:24;8.20;97.40
12254;DHT22;6189;52.526;13.390;2023-04-27T02:04:09;8.10;98.20
12254;DHT22;6189;52.526;13.390;2023-04-27T02:06:55;8.30;97.90
12254;DHT22;6189;52.526;13.390;2023-04-27T02:09:41;8.30;98.20
12254;DHT22;6189;52.526;13.390;2023-04-27T02:12:27;8.60;97.50
12254;DHT22;6189;52.526;13.390;2023-04-27T02:15:14;8.30;98.00
12254;DHT22;6189;52.526;13.390;2023-04-27T02:18:00;8.40;98.10
12254;DHT22;6189;52.526;13.390;2023-04-27T02:20:46;8.30;98.10
12254;DHT22;6189;52.526;13.390;2023-04-27T02:23:32;8.60;97.90
12254;DHT22;6189;52.526;13.390;2023-04-27T02:26:20;8.30;97.80
12254;DHT22;6189;52.526;13.390;2023-04-27T02:29:12;8.60;97.70
12254;DHT22;6189;52.526;13.390;2023-04-27T02:31:59;8.90;96.90
12254;DHT22;6189;52.526;13.390;2023-04-27T02:34:45;8.50;97.50
12254;DHT22;6189;52.526;13.390;2023-04-27T02:37:30;8.70;96.80
12254;DHT22;6189;52.526;13.390;2023-04-27T02:40:16;8.50;97.10
12254;DHT22;6189;52.526;13.390;2023-04-27T02:43:02;8.50;97.40
12254;DHT22;6189;52.526;13.390;2023-04-27T02:45:47;8.50;97.40
12254;DHT22;6189;52.526;13.390;2023-04-27T02:48:35;8.50;97.40
12254;DHT22;6189;52.526;13.390;2023-04-27T02:51:20;9.00;96.60
12254;DHT22;6189;52.526;13.390;2023-04-27T02:54:06;8.50;97.20
12254;DHT22;6189;52.526;13.390;2023-04-27T02:56:53;8.90;96.70
12254;DHT22;6189;52.526;13.390;2023-04-27T02:59:38;9.00;96.20
12254;DHT22;6189;52.526;13.390;2023-04-27T03:02:24;8.50;96.90
12254;DHT22;6189;52.526;13.390;2023-04-27T03:05:11;8.30;97.50
12254;DHT22;6189;52.526;13.390;2023-04-27T03:07:57;8.10;98.20
12254;DHT22;6189;52.526;13.390;2023-04-27T03:10:42;8.30;98.20
12254;DHT22;6189;52.526;13.390;2023-04-27T03:13:28;8.70;97.30
12254;DHT22;6189;52.526;13.390;2023-04-27T03:16:14;8.60;96.90
12254;DHT22;6189;52.526;13.390;2023-04-27T03:19:00;8.70;96.80
12254;DHT22;6189;52.526;13.390;2023-04-27T03:21:47;8.80;96.70
12254;DHT22;6189;52.526;13.390;2023-04-27T03:24:32;8.30;97.30
12254;DHT22;6189;52.526;13.390;2023-04-27T03:27:18;8.40;97.40
12254;DHT22;6189;52.526;13.390;2023-04-27T03:30:05;8.70;97.20
12254;DHT22;6189;52.526;13.390;2023-04-27T03:32:50;8.70;97.00
12254;DHT22;6189;52.526;13.390;2023-04-27T03:35:36;8.70;96.30
12254;DHT22;6189;52.526;13.390;2023-04-27T03:38:23;8.40;96.80
12254;DHT22;6189;52.526;13.390;2023-04-27T03:41:09;8.40;97.20
12254;DHT22;6189;52.526;13.390;2023-04-27T03:43:55;8.50;97.20
12254;DHT22;6189;52.526;13.390;2023-04-27T03:46:44;8.30;97.60
12254;DHT22;6189;52.526;13.390;2023-04-27T03:49:29;8.20;97.70
12254;DHT22;6189;52.526;13.390;2023-04-27T03:52:15;8.40;97.80
12254;DHT22;6189;52.526;13.390;2023-04-27T03:55:02;8.70;97.30
12254;DHT22;6189;52.526;13.390;2023-04-27T03:57:48;8.40;97.90
12254;DHT22;6189;52.526;13.390;2023-04-27T04:00:34;8.20;98.00
12254;DHT22;6189;52.526;13.390;2023-04-27T04:03:20;8.20;98.60
12254;DHT22;6189;52.526;13.390;2023-04-27T04:06:06;8.60;98.20
12254;DHT22;6189;52.526;13.390;2023-04-27T04:08:51;8.50;98.50
12254;DHT22;6189;52.526;13.390;2023-04-27T04:11:38;8.40;97.90
12254;DHT22;6189;52.526;13.390;2023-04-27T04:14:24;8.90;97.30
12254;DHT22;6189;52.526;13.390;2023-04-27T04:17:10;8.40;97.60
12254;DHT22;6189;52.526;13.390;2023-04-27T04:19:55;8.40;98.10
12254;DHT22;6189;52.526;13.390;2023-04-27T04:22:41;8.50;97.60
12254;DHT22;6189;52.526;13.390;2023-04-27T04:25:27;8.50;98.00
12254;DHT22;6189;52.526;13.390;2023-04-27T04:28:14;8.40;97.80
12254;DHT22;6189;52.526;13.390;2023-04-27T04:31:00;8.30;98.50
12254;DHT22;6189;52.526;13.390;2023-04-27T04:33:46;8.50;98.30
12254;DHT22;6189;52.526;13.390;2023-04-27T04:36:32;8.50;97.90
12254;DHT22;6189;52.526;13.390;2023-04-27T04:39:18;8.90;97.60
12254;DHT22;6189;52.526;13.390;2023-04-27T04:42:04;8.40;97.70
12254;DHT22;6189;52.526;13.390;2023-04-27T04:44:51;8.00;98.50
12254;DHT22;6189;52.526;13.390;2023-04-27T04:47:37;8.10;99.00
12254;DHT22;6189;52.526;13.390;2023-04-27T04:50:23;7.90;99.30
12254;DHT22;6189;52.526;13.390;2023-04-27T04:53:08;7.90;99.20
12254;DHT22;6189;52.526;13.390;2023-04-27T04:55:53;8.30;99.10
12254;DHT22;6189;52.526;13.390;2023-04-27T04:58:39;8.30;98.40
12254;DHT22;6189;52.526;13.390;2023-04-27T05:01:26;8.50;98.10
12254;DHT22;6189;52.526;13.390;2023-04-27T05:04:12;8.50;97.80
12254;DHT22;6189;52.526;13.390;2023-04-27T05:06:58;8.80;97.50
12254;DHT22;6189;52.526;13.390;2023-04-27T05:09:44;9.10;97.20
12254;DHT22;6189;52.526;13.390;2023-04-27T05:12:30;9.10;97.00
12254;DHT22;6189;52.526;13.390;2023-04-27T05:15:16;9.30;96.60
12254;DHT22;6189;52.526;13.390;2023-04-27T05:18:03;9.30;96.40
12254;DHT22;6189;52.526;13.390;2023-04-27T05:20:48;9.20;96.90
12254;DHT22;6189;52.526;13.390;2023-04-27T05:23:34;8.90;96.70
12254;DHT22;6189;52.526;13.390;2023-04-27T05:26:20;9.10;97.30
12254;DHT22;6189;52.526;13.390;2023-04-27T05:29:06;9.20;96.50
12254;DHT22;6189;52.526;13.390;2023-04-27T05:31:51;9.20;96.60
12254;DHT22;6189;52.526;13.390;2023-04-27T05:34:39;9.20;96.20
12254;DHT22;6189;52.526;13.390;2023-04-27T05:37:26;9.30;95.90
12254;DHT22;6189;52.526;13.390;2023-04-27T05:40:14;9.40;95.80
12254;DHT22;6189;52.526;13.390;2023-04-27T05:42:59;9.40;95.60
12254;DHT22;6189;52.526;13.390;2023-04-27T05:45:48;9.40;95.70
12254;DHT22;6189;52.526;13.390;2023-04-27T05:48:34;8.90;96.30
12254;DHT22;6189;52.526;13.390;2023-04-27T05:51:21;8.60;97.00
12254;DHT22;6189;52.526;13.390;2023-04-27T05:54:07;8.90;96.90
12254;DHT22;6189;52.526;13.390;2023-04-27T05:56:53;8.70;96.30
12254;DHT22;6189;52.526;13.390;2023-04-27T05:59:38;8.60;97.30
12254;DHT22;6189;52.526;13.390;2023-04-27T06:02:24;8.40;97.70
12254;DHT22;6189;52.526;13.390;2023-04-27T06:05:10;8.70;97.40
12254;DHT22;6189;52.526;13.390;2023-04-27T06:07:57;8.40;97.50
12254;DHT22;6189;52.526;13.390;2023-04-27T06:10:42;8.30;98.20
12254;DHT22;6189;52.526;13.390;2023-04-27T06:13:29;8.10;98.10
12254;DHT22;6189;52.526;13.390;2023-04-27T06:16:15;8.60;98.30
12254;DHT22;6189;52.526;13.390;2023-04-27T06:19:01;8.70;97.70
12254;DHT22;6189;52.526;13.390;2023-04-27T06:21:47;8.90;97.40
12254;DHT22;6189;52.526;13.390;2023-04-27T06:24:34;9.10;96.90
12254;DHT22;6189;52.526;13.390;2023-04-27T06:27:20;9.10;96.40
12254;DHT22;6189;52.526;13.390;2023-04-27T06:30:07;9.00;96.30
12254;DHT22;6189;52.526;13.390;2023-04-27T06:32:53;9.30;97.20
12254;DHT22;6189;52.526;13.390;2023-04-27T06:35:38;9.30;96.20
12254;DHT22;6189;52.526;13.390;2023-04-27T06:38:24;9.20;95.70
12254;DHT22;6189;52.526;13.390;2023-04-27T06:41:11;9.40;95.30
12254;DHT22;6189;52.526;13.390;2023-04-27T06:43:57;9.70;95.10
12254;DHT22;6189;52.526;13.390;2023-04-27T06:46:43;9.20;94.90
12254;DHT22;6189;52.526;13.390;2023-04-27T06:49:28;9.60;95.60
12254;DHT22;6189;52.526;13.390;2023-04-27T06:52:14;9.90;95.00
12254;DHT22;6189;52.526;13.390;2023-04-27T06:55:00;9.90;94.80
12254;DHT22;6189;52.526;13.390;2023-04-27T06:57:47;10.10;93.80
12254;DHT22;6189;52.526;13.390;2023-04-27T07:00:32;9.90;93.90
12254;DHT22;6189;52.526;13.390;2023-04-27T07:03:19;9.60;93.80
12254;DHT22;6189;52.526;13.390;2023-04-27T07:06:05;9.30;93.80
12254;DHT22;6189;52.526;13.390;2023-04-27T07:08:51;9.40;94.60
12254;DHT22;6189;52.526;13.390;2023-04-27T07:11:37;9.60;93.90
12254;DHT22;6189;52.526;13.390;2023-04-27T07:14:25;9.40;93.70
12254;DHT22;6189;52.526;13.390;2023-04-27T07:17:11;9.50;93.70
12254;DHT22;6189;52.526;13.390;2023-04-27T07:19:56;9.70;93.80
12254;DHT22;6189;52.526;13.390;2023-04-27T07:22:42;10.20;93.70
12254;DHT22;6189;52.526;13.390;2023-04-27T07:25:28;10.30;92.60
12254;DHT22;6189;52.526;13.390;2023-04-27T07:28:14;9.90;92.50
12254;DHT22;6189;52.526;13.390;2023-04-27T07:31:03;10.00;93.50
12254;DHT22;6189;52.526;13.390;2023-04-27T07:33:48;10.00;92.90
12254;DHT22;6189;52.526;13.390;2023-04-27T07:36:34;10.10;92.10
12254;DHT22;6189;52.526;13.390;2023-04-27T07:39:20;9.80;91.80
12254;DHT22;6189;52.526;13.390;2023-04-27T07:42:05;9.80;92.60
12254;DHT22;6189;52.526;13.390;2023-04-27T07:44:52;10.10;91.70
12254;DHT22;6189;52.526;13.390;2023-04-27T07:47:39;10.30;91.00
12254;DHT22;6189;52.526;13.390;2023-04-27T07:50:25;10.30;90.60
12254;DHT22;6189;52.526;13.390;2023-04-27T07:53:11;10.00;90.40
12254;DHT22;6189;52.526;13.390;2023-04-27T07:55:57;10.00;91.00
12254;DHT22;6189;52.526;13.390;2023-04-27T07:58:43;10.20;91.00
12254;DHT22;6189;52.526;13.390;2023-04-27T08:01:29;10.20;90.40
12254;DHT22;6189;52.526;13.390;2023-04-27T08:04:16;10.20;90.80
12254;DHT22;6189;52.526;13.390;2023-04-27T08:07:01;10.40;91.10
12254;DHT22;6189;52.526;13.390;2023-04-27T08:09:49;10.30;90.40
12254;DHT22;6189;52.526;13.390;2023-04-27T08:12:36;9.90;90.10
12254;DHT22;6189;52.526;13.390;2023-04-27T08:15:21;9.60;90.80
12254;DHT22;6189;52.526;13.390;2023-04-27T08:18:07;10.00;91.20
12254;DHT22;6189;52.526;13.390;2023-04-27T08:20:54;9.70;91.30
12254;DHT22;6189;52.526;13.390;2023-04-27T08:23:40;9.70;90.90
12254;DHT22;6189;52.526;13.390;2023-04-27T08:26:26;9.80;90.40
12254;DHT22;6189;52.526;13.390;2023-04-27T08:29:12;9.90;89.50
12254;DHT22;6189;52.526;13.390;2023-04-27T08:31:59;10.20;89.30
12254;DHT22;6189;52.526;13.390;2023-04-27T08:34:45;10.50;88.60
12254;DHT22;6189;52.526;13.390;2023-04-27T08:37:32;10.90;87.50
12254;DHT22;6189;52.526;13.390;2023-04-27T08:40:18;11.00;86.60
12254;DHT22;6189;52.526;13.390;2023-04-27T08:43:04;10.70;86.50
12254;DHT22;6189;52.526;13.390;2023-04-27T08:45:49;10.90;86.50
12254;DHT22;6189;52.526;13.390;2023-04-27T08:48:36;10.70;86.90
12254;DHT22;6189;52.526;13.390;2023-04-27T08:51:21;10.80;86.80
12254;DHT22;6189;52.526;13.390;2023-04-27T08:54:10;11.00;88.40
12254;DHT22;6189;52.526;13.390;2023-04-27T08:56:55;10.80;87.40
12254;DHT22;6189;52.526;13.390;2023-04-27T08:59:41;10.90;87.60
12254;DHT22;6189;52.526;13.390;2023-04-27T09:02:27;10.90;88.20
12254;DHT22;6189;52.526;13.390;2023-04-27T09:05:16;11.10;86.70
12254;DHT22;6189;52.526;13.390;2023-04-27T09:08:03;11.20;85.60
12254;DHT22;6189;52.526;13.390;2023-04-27T09:10:52;11.40;84.60
12254;DHT22;6189;52.526;13.390;2023-04-27T09:13:39;11.10;81.90
12254;DHT22;6189;52.526;13.390;2023-04-27T09:16:29;11.10;82.60
12254;DHT22;6189;52.526;13.390;2023-04-27T09:19:23;11.10;83.90
12254;DHT22;6189;52.526;13.390;2023-04-27T09:22:09;11.20;83.30
12254;DHT22;6189;52.526;13.390;2023-04-27T09:24:56;11.70;84.40
12254;DHT22;6189;52.526;13.390;2023-04-27T09:27:44;11.10;83.60
12254;DHT22;6189;52.526;13.390;2023-04-27T09:30:30;11.00;84.50
12254;DHT22;6189;52.526;13.390;2023-04-27T09:33:21;11.00;84.50
12254;DHT22;6189;52.526;13.390;2023-04-27T09:36:07;11.10;83.00
12254;DHT22;6189;52.526;13.390;2023-04-27T09:38:53;10.90;83.10
12254;DHT22;6189;52.526;13.390;2023-04-27T09:41:39;11.00;83.00
12254;DHT22;6189;52.526;13.390;2023-04-27T09:44:27;11.10;82.90
12254;DHT22;6189;52.526;13.390;2023-04-27T09:47:14;10.80;83.50
12254;DHT22;6189;52.526;13.390;2023-04-27T09:50:00;11.00;85.00
12254;DHT22;6189;52.526;13.390;2023-04-27T09:52:47;11.50;83.30
12254;DHT22;6189;52.526;13.390;2023-04-27T09:55:35;11.70;81.80
12254;DHT22;6189;52.526;13.390;2023-04-27T09:58:41;11.50;80.10
12254;DHT22;6189;52.526;13.390;2023-04-27T10:01:38;11.70;80.60
12254;DHT22;6189;52.526;13.390;2023-04-27T10:04:37;11.70;79.70
12254;DHT22;6189;52.526;13.390;2023-04-27T10:07:28;12.30;80.30
12254;DHT22;6189;52.526;13.390;2023-04-27T10:10:17;13.20;80.70
12254;DHT22;6189;52.526;13.390;2023-04-27T10:13:03;13.30;74.30
12254;DHT22;6189;52.526;13.390;2023-04-27T10:15:50;13.40;72.10
12254;DHT22;6189;52.526;13.390;2023-04-27T10:18:37;14.00;71.60
12254;DHT22;6189;52.526;13.390;2023-04-27T10:21:26;14.40;70.60
12254;DHT22;6189;52.526;13.390;2023-04-27T10:24:11;14.80;63.30
12254;DHT22;6189;52.526;13.390;2023-04-27T10:27:01;15.40;64.20
12254;DHT22;6189;52.526;13.390;2023-04-27T10:29:50;16.10;61.50
12254;DHT22;6189;52.526;13.390;2023-04-27T10:32:35;16.20;60.40
12254;DHT22;6189;52.526;13.390;2023-04-27T10:35:32;16.40;60.60
12254;DHT22;6189;52.526;13.390;2023-04-27T10:38:19;16.10;60.80
12254;DHT22;6189;52.526;13.390;2023-04-27T10:41:13;16.40;60.50
12254;DHT22;6189;52.526;13.390;2023-04-27T10:44:15;16.60;60.90
12254;DHT22;6189;52.526;13.390;2023-04-27T10:47:11;16.20;59.50
12254;DHT22;6189;52.526;13.390;2023-04-27T10:49:59;16.20;61.50
12254;DHT22;6189;52.526;13.390;2023-04-27T10:52:46;16.40;58.60
12254;DHT22;6189;52.526;13.390;2023-04-27T10:55:33;16.70;57.90
12254;DHT22;6189;52.526;13.390;2023-04-27T10:58:22;17.20;57.80
12254;DHT22;6189;52.526;13.390;2023-04-27T11:01:08;17.40;53.90
12254;DHT22;6189;52.526;13.390;2023-04-27T11:03:54;17.50;53.50
12254;DHT22;6189;52.526;13.390;2023-04-27T11:06:41;17.40;53.30
12254;DHT22;6189;52.526;13.390;2023-04-27T11:09:28;17.40;52.80
12254;DHT22;6189;52.526;13.390;2023-04-27T11:12:14;16.80;52.80
12254;DHT22;6189;52.526;13.390;2023-04-27T11:15:00;16.00;53.50
12254;DHT22;6189;52.526;13.390;2023-04-27T11:17:45;15.80;55.20
12254;DHT22;6189;52.526;13.390;2023-04-27T11:20:31;15.70;55.70
12254;DHT22;6189;52.526;13.390;2023-04-27T11:23:24;15.70;55.30
12254;DHT22;6189;52.526;13.390;2023-04-27T11:26:12;15.60;55.20
12254;DHT22;6189;52.526;13.390;2023-04-27T11:29:00;15.50;55.70
12254;DHT22;6189;52.526;13.390;2023-04-27T11:31:50;15.20;54.80
12254;DHT22;6189;52.526;13.390;2023-04-27T11:34:36;14.40;55.90
12254;DHT22;6189;52.526;13.390;2023-04-27T11:37:23;14.00;55.20
12254;DHT22;6189;52.526;13.390;2023-04-27T11:40:12;14.10;56.00
12254;DHT22;6189;52.526;13.390;2023-04-27T11:43:00;14.00;57.20
12254;DHT22;6189;52.526;13.390;2023-04-27T11:45:47;14.20;57.00
12254;DHT22;6189;52.526;13.390;2023-04-27T11:48:35;13.70;56.50
12254;DHT22;6189;52.526;13.390;2023-04-27T11:51:23;13.30;57.70
12254;DHT22;6189;52.526;13.390;2023-04-27T11:54:11;13.10;58.90
12254;DHT22;6189;52.526;13.390;2023-04-27T11:57:04;12.90;59.80
12254;DHT22;6189;52.526;13.390;2023-04-27T11:59:51;13.10;63.10
12254;DHT22;6189;52.526;13.390;2023-04-27T12:02:37;13.60;59.70
12254;DHT22;6189;52.526;13.390;2023-04-27T12:05:23;14.20;59.20
12254;DHT22;6189;52.526;13.390;2023-04-27T12:08:10;14.30;57.60
12254;DHT22;6189;52.526;13.390;2023-04-27T12:10:58;14.80;58.50
12254;DHT22;6189;52.526;13.390;2023-04-27T12:13:43;14.20;55.50
12254;DHT22;6189;52.526;13.390;2023-04-27T12:16:31;13.90;56.20
12254;DHT22;6189;52.526;13.390;2023-04-27T12:19:17;13.50;57.80
12254;DHT22;6189;52.526;13.390;2023-04-27T12:22:03;13.30;58.00
12254;DHT22;6189;52.526;13.390;2023-04-27T12:24:50;13.00;59.10
12254;DHT22;6189;52.526;13.390;2023-04-27T12:27:35;13.00;58.10
12254;DHT22;6189;52.526;13.390;2023-04-27T12:30:22;13.30;57.70
12254;DHT22;6189;52.526;13.390;2023-04-27T12:33:09;13.50;58.50
12254;DHT22;6189;52.526;13.390;2023-04-27T12:35:55;13.60;58.60
12254;DHT22;6189;52.526;13.390;2023-04-27T12:38:40;13.20;58.40
12254;DHT22;6189;52.526;13.390;2023-04-27T12:41:26;13.30;59.40
12254;DHT22;6189;52.526;13.390;2023-04-27T12:44:15;13.30;59.50
12254;DHT22;6189;52.526;13.390;2023-04-27T12:47:01;13.70;59.90
12254;DHT22;6189;52.526;13.390;2023-04-27T12:49:48;13.60;58.50
12254;DHT22;6189;52.526;13.390;2023-04-27T12:52:34;13.30;57.80
12254;DHT22;6189;52.526;13.390;2023-04-27T12:55:20;13.00;58.30
12254;DHT22;6189;52.526;13.390;2023-04-27T12:58:06;13.00;58.80
12254;DHT22;6189;52.526;13.390;2023-04-27T13:00:53;13.10;59.20
12254;DHT22;6189;52.526;13.390;2023-04-27T13:03:39;13.60;59.20
12254;DHT22;6189;52.526;13.390;2023-04-27T13:06:26;13.80;58.80
12254;DHT22;6189;52.526;13.390;2023-04-27T13:09:12;13.60;58.80
12254;DHT22;6189;52.526;13.390;2023-04-27T13:11:58;13.80;58.30
12254;DHT22;6189;52.526;13.390;2023-04-27T13:14:45;14.30;59.10
12254;DHT22;6189;52.526;13.390;2023-04-27T13:17:30;14.50;57.20
12254;DHT22;6189;52.526;13.390;2023-04-27T13:20:16;14.60;57.50
12254;DHT22;6189;52.526;13.390;2023-04-27T13:23:18;14.70;56.50
12254;DHT22;6189;52.526;13.390;2023-04-27T13:26:04;14.90;56.20
12254;DHT22;6189;52.526;13.390;2023-04-27T13:28:55;14.90;55.50
12254;DHT22;6189;52.526;13.390;2023-04-27T13:31:42;15.00;54.00
12254;DHT22;6189;52.526;13.390;2023-04-27T13:34:27;14.80;53.30
12254;DHT22;6189;52.526;13.390;2023-04-27T13:37:13;14.60;54.70
12254;DHT22;6189;52.526;13.390;2023-04-27T13:40:01;14.90;53.50
12254;DHT22;6189;52.526;13.390;2023-04-27T13:42:48;15.30;53.50
12254;DHT22;6189;52.526;13.390;2023-04-27T13:45:34;15.20;51.50
12254;DHT22;6189;52.526;13.390;2023-04-27T13:48:20;15.20;51.90
12254;DHT22;6189;52.526;13.390;2023-04-27T13:51:05;15.00;51.80
12254;DHT22;6189;52.526;13.390;2023-04-27T13:53:51;15.00;51.00
12254;DHT22;6189;52.526;13.390;2023-04-27T13:56:38;14.90;51.50
12254;DHT22;6189;52.526;13.390;2023-04-27T13:59:23;14.90;52.30
12254;DHT22;6189;52.526;13.390;2023-04-27T14:02:09;14.90;53.30
12254;DHT22;6189;52.526;13.390;2023-04-27T14:04:55;14.70;52.50
12254;DHT22;6189;52.526;13.390;2023-04-27T14:07:41;13.80;54.80
12254;DHT22;6189;52.526;13.390;2023-04-27T14:10:27;13.90;55.90
12254;DHT22;6189;52.526;13.390;2023-04-27T14:13:14;14.40;56.10
12254;DHT22;6189;52.526;13.390;2023-04-27T14:15:59;14.60;54.50
12254;DHT22;6189;52.526;13.390;2023-04-27T14:18:45;14.40;54.70
12254;DHT22;6189;52.526;13.390;2023-04-27T14:21:31;14.00;55.70
12254;DHT22;6189;52.526;13.390;2023-04-27T14:24:17;13.90;55.70
12254;DHT22;6189;52.526;13.390;2023-04-27T14:27:03;14.40;56.30
12254;DHT22;6189;52.526;13.390;2023-04-27T14:29:50;13.70;56.30
12254;DHT22;6189;52.526;13.390;2023-04-27T14:32:36;13.90;56.70
12254;DHT22;6189;52.526;13.390;2023-04-27T14:35:22;14.00;56.50
12254;DHT22;6189;52.526;13.390;2023-04-27T14:38:08;14.30;56.10
12254;DHT22;6189;52.526;13.390;2023-04-27T14:40:54;14.10;55.30
12254;DHT22;6189;52.526;13.390;2023-04-27T14:43:40;14.10;55.80
12254;DHT22;6189;52.526;13.390;2023-04-27T14:46:29;13.60;56.80
12254;DHT22;6189;52.526;13.390;2023-04-27T14:49:14;14.20;57.70
12254;DHT22;6189;52.526;13.390;2023-04-27T14:52:00;14.20;56.10
12254;DHT22;6189;52.526;13.390;2023-04-27T14:54:47;14.30;56.00
12254;DHT22;6189;52.526;13.390;2023-04-27T14:57:34;14.30;55.30
12254;DHT22;6189;52.526;13.390;2023-04-27T15:00:20;13.60;56.00
12254;DHT22;6189;52.526;13.390;2023-04-27T15:03:07;13.70;57.00
12254;DHT22;6189;52.526;13.390;2023-04-27T15:05:55;13.40;56.60
12254;DHT22;6189;52.526;13.390;2023-04-27T15:08:41;13.50;56.70
12254;DHT22;6189;52.526;13.390;2023-04-27T15:11:27;13.30;57.10
12254;DHT22;6189;52.526;13.390;2023-04-27T15:14:12;12.80;58.20
12254;DHT22;6189;52.526;13.390;2023-04-27T15:16:58;13.20;58.60
12254;DHT22;6189;52.526;13.390;2023-04-27T15:19:45;13.20;57.70
12254;DHT22;6189;52.526;13.390;2023-04-27T15:22:34;13.20;58.40
12254;DHT22;6189;52.526;13.390;2023-04-27T15:25:20;13.20;57.80
12254;DHT22;6189;52.526;13.390;2023-04-27T15:28:06;13.40;57.80
12254;DHT22;6189;52.526;13.390;2023-04-27T15:30:51;13.80;58.20
12254;DHT22;6189;52.526;13.390;2023-04-27T15:33:37;13.40;57.40
12254;DHT22;6189;52.526;13.390;2023-04-27T15:36:24;13.60;56.80
12254;DHT22;6189;52.526;13.390;2023-04-27T15:39:11;13.40;56.70
12254;DHT22;6189;52.526;13.390;2023-04-27T15:41:57;13.10;57.30
12254;DHT22;6189;52.526;13.390;2023-04-27T15:44:43;13.30;57.60
12254;DHT22;6189;52.526;13.390;2023-04-27T15:47:28;13.40;57.30
12254;DHT22;6189;52.526;13.390;2023-04-27T15:50:14;13.20;57.30
12254;DHT22;6189;52.526;13.390;2023-04-27T15:53:01;13.10;57.10
12254;DHT22;6189;52.526;13.390;2023-04-27T15:55:50;12.80;58.90
12254;DHT22;6189;52.526;13.390;2023-04-27T15:58:36;13.20;60.20
12254;DHT22;6189;52.526;13.390;2023-04-27T16:01:21;13.20;58.30
12254;DHT22;6189;52.526;13.390;2023-04-27T16:04:07;13.10;58.10
12254;DHT22;6189;52.526;13.390;2023-04-27T16:06:53;13.00;57.80
12254;DHT22;6189;52.526;13.390;2023-04-27T16:09:40;12.80;58.80
12254;DHT22;6189;52.526;13.390;2023-04-27T16:12:26;13.00;58.80
12254;DHT22;6189;52.526;13.390;2023-04-27T16:15:11;13.20;58.20
12254;DHT22;6189;52.526;13.390;2023-04-27T16:17:57;13.50;57.80
12254;DHT22;6189;52.526;13.390;2023-04-27T16:20:46;13.60;57.50
12254;DHT22;6189;52.526;13.390;2023-04-27T16:23:32;13.60;58.10
12254;DHT22;6189;52.526;13.390;2023-04-27T16:26:19;13.40;57.60
12254;DHT22;6189;52.526;13.390;2023-04-27T16:29:04;13.80;56.90
12254;DHT22;6189;52.526;13.390;2023-04-27T16:31:51;13.70;57.00
12254;DHT22;6189;52.526;13.390;2023-04-27T16:34:37;13.90;56.30
12254;DHT22;6189;52.526;13.390;2023-04-27T16:37:32;13.50;56.80
12254;DHT22;6189;52.526;13.390;2023-04-27T16:43:29;13.40;55.60
12254;DHT22;6189;52.526;13.390;2023-04-27T16:46:16;13.40;55.40
12254;DHT22;6189;52.526;13.390;2023-04-27T16:49:02;13.20;54.30
12254;DHT22;6189;52.526;13.390;2023-04-27T16:51:48;13.40;54.20
12254;DHT22;6189;52.526;13.390;2023-04-27T16:54:33;13.50;54.30
12254;DHT22;6189;52.526;13.390;2023-04-27T16:57:19;13.30;53.70
12254;DHT22;6189;52.526;13.390;2023-04-27T17:00:08;12.90;55.80
12254;DHT22;6189;52.526;13.390;2023-04-27T17:02:54;12.80;54.70
12254;DHT22;6189;52.526;13.390;2023-04-27T17:05:39;12.90;54.60
12254;DHT22;6189;52.526;13.390;2023-04-27T17:08:25;13.10;55.40
12254;DHT22;6189;52.526;13.390;2023-04-27T17:11:14;13.00;54.20
12254;DHT22;6189;52.526;13.390;2023-04-27T17:13:59;12.80;54.90
12254;DHT22;6189;52.526;13.390;2023-04-27T17:16:47;12.60;55.50
12254;DHT22;6189;52.526;13.390;2023-04-27T17:19:32;12.80;55.20
12254;DHT22;6189;52.526;13.390;2023-04-27T17:22:18;12.90;54.60
12254;DHT22;6189;52.526;13.390;2023-04-27T17:25:05;13.00;54.70
12254;DHT22;6189;52.526;13.390;2023-04-27T17:27:50;13.10;54.20
12254;DHT22;6189;52.526;13.390;2023-04-27T17:30:36;13.00;54.40
12254;DHT22;6189;52.526;13.390;2023-04-27T17:33:24;12.80;54.30
12254;DHT22;6189;52.526;13.390;2023-04-27T17:36:09;12.50;54.80
12254;DHT22;6189;52.526;13.390;2023-04-27T17:38:55;12.80;55.10
12254;DHT22;6189;52.526;13.390;2023-04-27T17:41:41;13.00;54.70
12254;DHT22;6189;52.526;13.390;2023-04-27T17:44:27;12.80;53.60